createdAt,value
2017-12-21T00:01:22.279Z,17.40
2017-12-21T00:03:49.737Z,19.85
2017-12-21T00:06:18.000Z,19.30
2017-12-21T00:08:45.510Z,18.58
2017-12-21T00:11:12.941Z,18.00
2017-12-21T00:13:40.389Z,17.25
2017-12-21T00:16:07.857Z,16.83
2017-12-21T00:18:36.119Z,17.65
2017-12-21T00:21:03.549Z,16.60
2017-12-21T00:23:30.996Z,17.20
2017-12-21T00:25:58.436Z,17.37
2017-12-21T00:28:25.902Z,17.37
2017-12-21T00:30:53.338Z,17.27
2017-12-21T00:33:20.878Z,17.70
2017-12-21T00:35:48.321Z,19.25
2017-12-21T00:38:15.768Z,15.43
2017-12-21T00:40:43.225Z,16.58
2017-12-21T00:43:10.694Z,15.70
2017-12-21T00:45:38.145Z,16.85
2017-12-21T00:48:05.573Z,14.87
2017-12-21T00:50:33.042Z,15.32
2017-12-21T00:53:00.490Z,14.60
2017-12-21T00:55:27.947Z,16.17
2017-12-21T00:57:55.379Z,14.40
2017-12-21T01:00:22.817Z,15.85
2017-12-21T01:02:50.244Z,15.85
2017-12-21T01:05:17.750Z,14.10
2017-12-21T01:07:45.200Z,16.67
2017-12-21T01:10:12.646Z,13.80
2017-12-21T01:12:40.077Z,14.98
2017-12-21T01:15:07.529Z,15.38
2017-12-21T01:17:35.741Z,15.43
2017-12-21T01:20:03.228Z,15.52
2017-12-21T01:22:30.655Z,15.77
2017-12-21T01:24:58.106Z,14.87
2017-12-21T01:27:25.536Z,12.48
2017-12-21T01:29:52.992Z,15.15
2017-12-21T01:32:20.437Z,16.30
2017-12-21T01:34:47.880Z,14.10
2017-12-21T01:37:15.349Z,16.45
2017-12-21T01:39:43.684Z,16.33
2017-12-21T01:42:11.129Z,17.05
2017-12-21T01:44:38.667Z,13.93
2017-12-21T01:47:06.118Z,15.68
2017-12-21T01:49:33.656Z,14.45
2017-12-21T01:52:01.100Z,14.13
2017-12-21T01:54:28.545Z,14.20
2017-12-21T01:56:55.994Z,15.68
2017-12-21T01:59:23.429Z,15.55
2017-12-21T02:01:50.864Z,14.20
2017-12-21T02:04:18.425Z,14.30
2017-12-21T02:06:45.852Z,14.77
2017-12-21T02:09:13.293Z,14.98
2017-12-21T02:11:40.731Z,15.63
2017-12-21T02:14:08.182Z,15.35
2017-12-21T02:16:35.627Z,15.80
2017-12-21T02:19:03.076Z,15.00
2017-12-21T02:21:30.505Z,16.77
2017-12-21T02:23:57.939Z,16.92
2017-12-21T02:26:25.384Z,17.80
2017-12-21T02:28:52.811Z,18.60
2017-12-21T02:31:20.267Z,19.15
2017-12-21T02:33:47.697Z,18.27
2017-12-21T02:36:16.136Z,19.50
2017-12-21T02:38:43.571Z,19.75
2017-12-21T02:41:11.009Z,18.75
2017-12-21T02:43:38.624Z,20.00
2017-12-21T02:46:06.059Z,19.45
2017-12-21T02:48:33.496Z,21.00
2017-12-21T02:51:00.932Z,20.77
2017-12-21T02:53:29.185Z,20.70
2017-12-21T02:55:56.630Z,21.98
2017-12-21T02:58:24.072Z,20.37
2017-12-21T03:00:51.512Z,20.83
2017-12-21T03:03:18.970Z,22.05
2017-12-21T03:05:46.433Z,21.90
2017-12-21T03:08:13.870Z,21.05
2017-12-21T03:10:41.308Z,22.13
2017-12-21T03:13:08.753Z,21.80
2017-12-21T03:15:36.968Z,23.10
2017-12-21T03:18:04.415Z,23.30
2017-12-21T03:20:31.852Z,22.50
2017-12-21T03:22:59.298Z,23.70
2017-12-21T03:25:26.724Z,23.00
2017-12-21T03:27:54.232Z,23.02
2017-12-21T03:30:21.701Z,22.98
2017-12-21T03:32:49.912Z,22.83
2017-12-21T03:35:17.402Z,24.77
2017-12-21T03:37:44.828Z,22.77
2017-12-21T03:40:13.036Z,22.83
2017-12-21T03:42:40.482Z,23.55
2017-12-21T03:45:07.923Z,23.05
2017-12-21T03:47:35.370Z,21.98
2017-12-21T03:50:02.824Z,25.15
2017-12-21T03:52:30.262Z,23.95
2017-12-21T03:54:57.719Z,22.37
2017-12-21T03:57:25.152Z,23.27
2017-12-21T03:59:52.596Z,22.95
2017-12-21T04:02:20.033Z,24.37
2017-12-21T04:04:47.494Z,22.50
2017-12-21T04:07:15.700Z,24.08
2017-12-21T04:09:43.144Z,23.52
2017-12-21T04:12:10.581Z,24.83
2017-12-21T04:14:38.091Z,26.08
2017-12-21T04:17:05.525Z,25.95
2017-12-21T04:19:33.076Z,26.35
2017-12-21T04:22:00.507Z,24.75
2017-12-21T04:24:27.964Z,26.85
2017-12-21T04:26:55.396Z,25.02
2017-12-21T04:29:22.956Z,26.20
2017-12-21T04:31:50.504Z,24.80
2017-12-21T04:34:18.053Z,24.37
2017-12-21T04:36:45.488Z,26.42
2017-12-21T04:39:12.928Z,23.33
2017-12-21T04:41:40.368Z,25.12
2017-12-21T04:44:07.808Z,24.90
2017-12-21T04:46:35.260Z,24.85
2017-12-21T04:49:02.773Z,24.58
2017-12-21T04:51:30.208Z,25.80
2017-12-21T04:53:57.756Z,24.65
2017-12-21T04:56:25.192Z,24.05
2017-12-21T04:58:52.639Z,23.83
2017-12-21T05:01:20.096Z,25.20
2017-12-21T05:03:47.585Z,23.87
2017-12-21T05:06:15.097Z,26.87
2017-12-21T05:08:42.543Z,23.15
2017-12-21T05:11:10.084Z,22.95
2017-12-21T05:13:37.526Z,23.65
2017-12-21T05:16:04.977Z,24.67
2017-12-21T05:18:32.420Z,22.70
2017-12-21T05:20:59.865Z,26.75
2017-12-21T05:23:27.296Z,24.70
2017-12-21T05:25:54.846Z,24.27
2017-12-21T05:28:22.392Z,22.80
2017-12-21T05:30:49.848Z,23.60
2017-12-21T05:33:17.292Z,24.70
2017-12-21T05:35:45.551Z,24.40
2017-12-21T05:38:12.990Z,23.67
2017-12-21T05:40:40.424Z,21.62
2017-12-21T05:43:07.868Z,24.20
2017-12-21T05:45:35.325Z,24.08
2017-12-21T05:48:02.847Z,23.50
2017-12-21T05:50:30.297Z,24.23
2017-12-21T05:52:57.740Z,23.90
2017-12-21T05:55:25.281Z,23.15
2017-12-21T05:57:52.712Z,22.08
2017-12-21T06:00:20.153Z,21.37
2017-12-21T06:02:47.596Z,23.67
2017-12-21T06:05:15.131Z,23.62
2017-12-21T06:07:42.555Z,24.27
2017-12-21T06:10:09.997Z,23.60
2017-12-21T06:12:37.436Z,24.45
2017-12-21T06:15:04.878Z,23.95
2017-12-21T06:17:32.316Z,24.20
2017-12-21T06:19:59.748Z,23.85
2017-12-21T06:22:27.289Z,23.50
2017-12-21T06:24:55.505Z,21.85
2017-12-21T06:27:22.927Z,23.52
2017-12-21T06:29:50.380Z,23.65
2017-12-21T06:32:17.824Z,24.33
2017-12-21T06:34:45.288Z,24.63
2017-12-21T06:37:12.724Z,22.75
2017-12-21T06:39:40.175Z,23.55
2017-12-21T06:42:07.649Z,23.27
2017-12-21T06:44:35.131Z,23.87
2017-12-21T06:47:02.570Z,22.48
2017-12-21T06:49:30.017Z,22.25
2017-12-21T06:51:57.498Z,23.50
2017-12-21T06:54:24.944Z,22.10
2017-12-21T06:56:52.416Z,23.98
2017-12-21T06:59:22.516Z,23.08
2017-12-21T07:01:49.992Z,22.98
2017-12-21T07:04:17.462Z,22.30
2017-12-21T07:06:44.910Z,22.13
2017-12-21T07:09:12.448Z,23.83
2017-12-21T07:11:39.899Z,24.67
2017-12-21T07:14:07.349Z,22.42
2017-12-21T07:16:36.559Z,22.55
2017-12-21T07:19:04.036Z,19.87
2017-12-21T07:21:31.477Z,23.05
2017-12-21T07:23:59.422Z,20.35
2017-12-21T07:26:26.871Z,21.25
2017-12-21T07:28:54.321Z,21.98
2017-12-21T07:31:21.783Z,21.12
2017-12-21T07:33:49.278Z,21.08
2017-12-21T07:36:16.741Z,21.67
2017-12-21T07:38:44.221Z,21.70
2017-12-21T07:41:11.664Z,19.25
2017-12-21T07:43:39.091Z,18.08
2017-12-21T07:46:06.717Z,22.85
2017-12-21T07:48:34.139Z,23.00
2017-12-21T07:51:01.612Z,21.87
2017-12-21T07:53:29.028Z,20.95
2017-12-21T07:55:56.472Z,20.92
2017-12-21T07:58:23.918Z,19.73
2017-12-21T08:00:51.373Z,19.42
2017-12-21T08:03:18.809Z,20.00
2017-12-21T08:05:46.296Z,21.35
2017-12-21T08:08:13.728Z,20.80
2017-12-21T08:10:41.174Z,22.17
2017-12-21T08:13:08.610Z,20.73
2017-12-21T08:15:36.044Z,18.42
2017-12-21T08:18:03.499Z,19.15
2017-12-21T08:20:30.940Z,22.17
2017-12-21T08:22:58.380Z,20.00
2017-12-21T08:25:25.828Z,19.70
2017-12-21T08:27:53.272Z,19.65
2017-12-21T08:30:20.747Z,19.52
2017-12-21T08:32:48.228Z,21.02
2017-12-21T08:35:25.604Z,19.20
2017-12-21T08:37:53.042Z,18.02
2017-12-21T08:40:20.474Z,19.75
2017-12-21T08:42:47.916Z,20.33
2017-12-21T08:45:15.393Z,19.85
2017-12-21T08:47:42.956Z,19.98
2017-12-21T08:50:10.414Z,19.25
2017-12-21T08:52:38.615Z,20.60
2017-12-21T08:55:06.045Z,20.12
2017-12-21T08:57:33.518Z,19.55
2017-12-21T09:00:00.952Z,19.10
2017-12-21T09:02:28.407Z,17.62
2017-12-21T09:04:55.861Z,18.65
2017-12-21T09:07:23.316Z,18.85
2017-12-21T09:09:50.747Z,18.12
2017-12-21T09:12:18.228Z,20.42
2017-12-21T09:14:46.427Z,18.25
2017-12-21T09:17:13.893Z,17.95
2017-12-21T09:19:41.446Z,20.45
2017-12-21T09:22:09.068Z,18.27
2017-12-21T09:24:36.505Z,30.33
2017-12-21T09:27:03.936Z,20.77
2017-12-21T09:29:31.380Z,18.67
2017-12-21T09:31:58.821Z,19.37
2017-12-21T09:34:26.301Z,17.55
2017-12-21T09:36:53.782Z,20.15
2017-12-21T09:39:21.195Z,19.48
2017-12-21T09:41:48.625Z,21.08
2017-12-21T09:44:16.077Z,19.92
2017-12-21T09:46:43.513Z,18.60
2017-12-21T09:49:11.054Z,19.27
2017-12-21T09:51:38.500Z,19.92
2017-12-21T09:54:05.941Z,20.67
2017-12-21T09:56:33.380Z,19.45
2017-12-21T09:59:00.824Z,16.77
2017-12-21T10:01:28.272Z,19.50
2017-12-21T10:03:55.732Z,19.60
2017-12-21T10:06:23.156Z,17.70
2017-12-21T10:08:50.644Z,20.70
2017-12-21T10:11:18.079Z,20.52
2017-12-21T10:13:46.276Z,20.12
2017-12-21T10:16:13.730Z,18.98
2017-12-21T10:18:41.169Z,18.23
2017-12-21T10:21:08.613Z,18.15
2017-12-21T10:23:36.050Z,19.20
2017-12-21T10:26:03.502Z,18.58
2017-12-21T11:50:28.796Z,18.55
2017-12-21T11:52:57.053Z,16.45
2017-12-21T13:17:21.569Z,13.50
2017-12-21T13:19:49.058Z,13.93
2017-12-21T13:22:17.320Z,15.07
2017-12-21T13:24:45.533Z,13.68
2017-12-21T13:27:12.993Z,14.90
2017-12-21T13:29:40.441Z,15.80
2017-12-21T13:32:08.663Z,13.90
2017-12-21T13:34:36.202Z,14.63
2017-12-21T13:37:04.408Z,15.15
2017-12-21T13:39:31.855Z,14.82
2017-12-21T13:41:59.309Z,15.65
2017-12-21T13:44:26.746Z,13.13
2017-12-21T13:46:54.202Z,14.68
2017-12-21T13:49:22.404Z,14.25
2017-12-21T13:51:49.997Z,13.40
2017-12-21T13:54:17.441Z,14.93
2017-12-21T13:56:44.877Z,13.05
2017-12-21T13:59:12.327Z,16.50
2017-12-21T14:01:39.768Z,14.43
2017-12-21T14:04:07.212Z,14.35
2017-12-21T14:06:35.419Z,14.25
2017-12-21T14:09:02.938Z,19.42
2017-12-21T14:11:31.138Z,15.63
2017-12-21T14:13:58.584Z,15.23
2017-12-21T14:16:26.122Z,14.93
2017-12-21T14:18:53.566Z,14.63
2017-12-21T14:21:21.048Z,14.70
2017-12-21T14:23:48.513Z,14.82
2017-12-21T14:26:15.948Z,14.30
2017-12-21T14:28:44.153Z,15.38
2017-12-21T14:31:11.600Z,16.33
2017-12-21T14:33:39.273Z,15.63
2017-12-21T14:36:06.717Z,14.68
2017-12-21T14:38:34.172Z,15.05
2017-12-21T14:41:02.376Z,16.37
2017-12-21T14:43:29.877Z,17.25
2017-12-21T14:45:57.316Z,16.17
2017-12-21T14:48:24.782Z,15.80
2017-12-21T14:50:53.023Z,16.83
2017-12-21T14:53:20.453Z,16.42
2017-12-21T14:55:47.902Z,16.42
2017-12-21T14:58:15.336Z,17.52
2017-12-21T15:00:42.776Z,15.77
2017-12-21T15:03:10.214Z,17.60
2017-12-21T15:05:37.660Z,18.87
2017-12-21T15:08:05.100Z,18.08
2017-12-21T15:10:32.550Z,16.30
2017-12-21T15:13:00.748Z,18.75
2017-12-21T15:15:28.188Z,18.70
2017-12-21T15:17:55.624Z,18.90
2017-12-21T15:20:23.866Z,15.75
2017-12-21T15:22:51.297Z,19.70
2017-12-21T15:25:18.755Z,17.20
2017-12-21T15:27:46.957Z,18.20
2017-12-21T15:30:14.397Z,17.25
2017-12-21T15:32:41.905Z,18.17
2017-12-21T15:35:09.349Z,17.00
2017-12-21T15:37:37.709Z,17.85
2017-12-21T15:40:05.925Z,17.35
2017-12-21T15:42:33.362Z,18.17
2017-12-21T15:45:00.818Z,16.77
2017-12-21T15:47:28.250Z,16.40
2017-12-21T15:49:55.686Z,16.92
2017-12-21T15:52:23.135Z,17.90
2017-12-21T15:54:50.588Z,17.73
2017-12-21T15:57:18.820Z,17.20
2017-12-21T15:59:46.253Z,19.80
2017-12-21T16:02:14.686Z,18.58
2017-12-21T16:04:42.222Z,16.42
2017-12-21T16:07:09.678Z,17.77
2017-12-21T16:09:37.100Z,17.77
2017-12-21T16:12:04.648Z,17.00
2017-12-21T16:14:32.129Z,17.25
2017-12-21T16:17:00.361Z,17.70
2017-12-21T16:19:27.785Z,17.92
2017-12-21T16:21:55.244Z,18.20
2017-12-21T16:24:22.667Z,16.75
2017-12-21T16:26:50.116Z,17.40
2017-12-21T16:29:17.548Z,18.15
2017-12-21T16:31:44.992Z,17.50
2017-12-21T16:34:12.432Z,17.83
2017-12-21T16:36:39.873Z,18.65
2017-12-21T16:39:07.313Z,18.95
2017-12-21T16:41:34.755Z,21.67
2017-12-21T16:44:02.188Z,20.85
2017-12-21T16:46:29.675Z,17.80
2017-12-21T16:48:57.136Z,18.30
2017-12-21T16:51:25.346Z,22.33
2017-12-21T16:53:52.800Z,19.55
2017-12-21T16:56:20.225Z,20.15
2017-12-21T16:58:47.664Z,22.45
2017-12-21T17:01:15.132Z,18.95
2017-12-21T17:03:42.589Z,19.20
2017-12-21T17:06:10.034Z,22.02
2017-12-21T17:08:37.480Z,21.83
2017-12-21T17:11:05.725Z,20.40
2017-12-21T17:13:33.633Z,22.50
2017-12-21T17:16:01.060Z,20.90
2017-12-21T17:18:28.516Z,21.73
2017-12-21T17:20:56.012Z,20.83
2017-12-21T17:23:23.552Z,20.98
2017-12-21T17:25:51.033Z,22.30
2017-12-21T17:28:18.474Z,20.62
2017-12-21T17:30:45.991Z,19.08
2017-12-21T17:33:13.513Z,19.42
2017-12-21T17:35:40.982Z,22.85
2017-12-21T17:38:08.417Z,24.23
2017-12-21T17:40:35.862Z,21.85
2017-12-21T17:43:03.402Z,19.52
2017-12-21T17:45:30.894Z,19.55
2017-12-21T17:47:58.330Z,19.52
2017-12-21T17:50:25.833Z,20.45
2017-12-21T17:52:53.277Z,18.75
2017-12-21T17:55:20.712Z,19.67
2017-12-21T17:57:48.176Z,18.17
2017-12-21T18:00:15.629Z,18.67
2017-12-21T18:02:43.829Z,19.15
2017-12-21T18:05:11.363Z,20.33
2017-12-21T18:07:38.796Z,19.05
2017-12-21T18:10:06.294Z,17.62
2017-12-21T18:12:34.497Z,19.52
2017-12-21T18:15:02.014Z,17.25
2017-12-21T18:17:29.432Z,17.35
2017-12-21T18:19:56.922Z,18.15
2017-12-21T18:22:25.120Z,17.40
2017-12-21T18:24:52.588Z,17.23
2017-12-21T18:27:20.076Z,16.92
2017-12-21T18:29:47.556Z,18.05
2017-12-21T18:32:14.997Z,18.00
2017-12-21T18:34:42.507Z,17.85
2017-12-21T18:37:10.045Z,19.58
2017-12-21T18:39:38.405Z,20.08
2017-12-21T18:42:06.606Z,18.20
2017-12-21T18:44:34.080Z,17.92
2017-12-21T18:47:01.659Z,18.87
2017-12-21T18:49:29.880Z,20.33
2017-12-21T18:51:57.328Z,19.92
2017-12-21T18:54:31.765Z,20.30
2017-12-21T18:56:59.249Z,19.80
2017-12-21T18:59:27.104Z,19.45
2017-12-21T19:01:54.584Z,19.30
2017-12-21T19:04:22.071Z,19.05
2017-12-21T19:06:49.508Z,22.73
2017-12-21T19:09:16.983Z,20.23
2017-12-21T19:11:44.443Z,18.08
2017-12-21T19:14:12.047Z,19.45
2017-12-21T19:16:39.480Z,19.12
2017-12-21T19:19:06.934Z,19.62
2017-12-21T19:21:34.369Z,21.10
2017-12-21T19:24:01.791Z,18.50
2017-12-21T19:26:29.242Z,19.00
2017-12-21T19:28:56.779Z,19.75
2017-12-21T19:31:25.020Z,22.33
2017-12-21T19:33:53.275Z,18.23
2017-12-21T19:36:20.755Z,18.23
2017-12-21T19:38:48.276Z,21.33
2017-12-21T19:41:16.523Z,20.02
2017-12-21T19:43:44.108Z,18.48
2017-12-21T19:46:11.534Z,20.02
2017-12-21T19:48:38.992Z,16.12
2017-12-21T19:51:06.470Z,19.73
2017-12-21T19:53:33.968Z,19.27
2017-12-21T19:56:02.512Z,19.50
2017-12-21T19:58:30.005Z,19.52
2017-12-21T20:00:57.428Z,20.50
2017-12-21T20:03:24.978Z,19.52
2017-12-21T20:05:54.399Z,20.80
2017-12-21T20:08:21.921Z,19.00
2017-12-21T20:10:49.624Z,21.60
2017-12-21T20:13:17.048Z,20.48
2017-12-21T20:15:44.538Z,20.52
2017-12-21T20:18:12.784Z,20.05
2017-12-21T20:20:41.036Z,18.67
2017-12-21T20:23:08.628Z,17.92
2017-12-21T20:25:36.123Z,19.42
2017-12-21T20:28:03.611Z,18.80
2017-12-21T20:30:31.095Z,19.83
2017-12-21T20:32:58.591Z,20.55
2017-12-21T20:35:26.138Z,23.08
2017-12-21T20:37:53.706Z,19.55
2017-12-21T20:40:21.208Z,20.95
2017-12-21T20:42:49.399Z,19.87
2017-12-21T20:45:16.912Z,19.95
2017-12-21T20:47:45.151Z,20.70
2017-12-21T20:50:12.622Z,21.30
2017-12-21T20:52:41.089Z,20.70
2017-12-21T20:55:08.659Z,20.55
2017-12-21T20:57:36.092Z,20.48
2017-12-21T21:00:03.627Z,19.25
2017-12-21T21:02:31.918Z,20.92
2017-12-21T21:04:59.410Z,20.92
2017-12-21T21:07:26.888Z,20.98
2017-12-21T21:09:54.377Z,21.90
2017-12-21T21:12:21.857Z,20.90
2017-12-21T21:14:50.156Z,20.60
2017-12-21T21:17:17.683Z,19.77
2017-12-21T21:19:45.130Z,20.52
2017-12-21T21:22:12.581Z,19.85
2017-12-21T21:24:40.025Z,21.33
2017-12-21T21:27:07.523Z,20.58
2017-12-21T21:29:35.752Z,21.35
2017-12-21T21:32:03.292Z,20.67
2017-12-21T21:34:30.863Z,19.00
2017-12-21T21:36:58.459Z,19.00
2017-12-21T21:39:26.694Z,19.08
2017-12-21T21:41:55.017Z,19.90
2017-12-21T21:44:22.491Z,20.02
2017-12-21T21:46:50.740Z,20.42
2017-12-21T21:49:18.214Z,21.48
2017-12-21T21:51:45.776Z,19.80
2017-12-21T21:54:13.247Z,20.25
2017-12-21T21:56:40.828Z,20.25
2017-12-21T21:59:09.069Z,19.23
2017-12-21T22:01:36.553Z,18.92
2017-12-21T22:04:04.065Z,20.02
2017-12-21T22:06:31.573Z,20.23
2017-12-21T22:08:59.039Z,21.25
2017-12-21T22:11:27.296Z,19.45
2017-12-21T22:13:54.743Z,19.85
2017-12-21T22:16:22.218Z,20.42
2017-12-21T22:18:50.472Z,21.75
2017-12-21T22:21:18.716Z,20.75
2017-12-21T22:23:46.773Z,19.90
2017-12-21T22:26:14.274Z,19.95
2017-12-21T22:28:41.761Z,20.15
2017-12-21T22:31:09.230Z,21.27
2017-12-21T22:33:37.500Z,22.50
2017-12-21T22:36:05.756Z,23.10
2017-12-21T22:38:33.990Z,23.50
2017-12-21T22:41:01.573Z,26.67
2017-12-21T22:43:29.004Z,24.45
2017-12-21T22:45:56.492Z,29.27
2017-12-21T22:48:23.921Z,27.52
2017-12-21T22:50:51.359Z,30.85
2017-12-21T22:53:18.871Z,26.85
2017-12-21T22:55:47.102Z,20.95
2017-12-21T22:58:14.617Z,23.52
2017-12-21T23:00:42.047Z,18.33
2017-12-21T23:03:09.533Z,19.65
2017-12-21T23:05:37.091Z,20.95
2017-12-21T23:08:04.554Z,18.45
2017-12-21T23:10:32.956Z,19.10
2017-12-21T23:13:00.434Z,20.70
2017-12-21T23:15:27.935Z,19.30
2017-12-21T23:17:55.366Z,18.87
2017-12-21T23:20:22.850Z,18.52
2017-12-21T23:22:50.277Z,18.73
2017-12-21T23:25:17.811Z,19.27
2017-12-21T23:27:45.285Z,22.48
2017-12-21T23:30:12.765Z,18.67
2017-12-21T23:32:41.010Z,19.55
2017-12-21T23:35:08.502Z,18.62
2017-12-21T23:37:35.928Z,19.27
2017-12-21T23:40:03.415Z,20.25
2017-12-21T23:42:30.896Z,21.10
2017-12-21T23:44:59.096Z,17.80
2017-12-21T23:47:26.575Z,20.92
2017-12-21T23:49:54.046Z,21.33
2017-12-21T23:52:22.862Z,20.75
2017-12-21T23:54:50.335Z,17.52
2017-12-21T23:57:17.780Z,17.52
2017-12-21T23:59:45.244Z,17.77
